Time;durP1;ratioP1;P1;durP2;ratioP2;P2;SDS_P1;SDS_P2;PMS_P1;PMS_P2;Temp;Humidity;BMP_temperature;BMP_pressure;BME280_temperature;BME280_humidity;BME280_pressure;Samples;Min_cycle;Max_cycle;Signal;HPM_P1;HPM_P2
2022/12/03 00:00:24;;;;;;;;;;;;;;;2.37;62.01;100251.66;4966896;28;19918;-60
2022/12/03 00:02:50;;;;;;;;;;;;;;;2.24;63.13;100232.78;4965817;28;19914;-60
2022/12/03 00:05:15;;;;;;;;;;;;;;;1.94;64.36;100215.19;4965206;28;19918;-60
2022/12/03 00:07:40;;;;;;;;;;;;;;;2.34;61.86;100231.28;4971252;28;20390;-60
2022/12/03 00:10:06;;;;;;;;;;;;;;;2.17;62.60;100222.44;4967967;28;19968;-60
2022/12/03 00:12:31;;;;;;;;;;;;;;;2.35;61.82;100239.75;4966905;28;19929;-60
2022/12/03 00:14:56;;;;;;;;;;;;;;;2.15;62.84;100219.88;4966315;28;19960;-60
2022/12/03 00:17:21;;;;;;;;;;;;;;;2.37;61.74;100231.31;4967375;28;19922;-60
2022/12/03 00:19:47;;;;;;;;;;;;;;;2.22;63.68;100216.63;4966827;28;19918;-60
2022/12/03 00:22:12;;;;;;;;;;;;;;;1.70;66.05;100199.38;4974182;28;19988;-60
2022/12/03 00:24:37;;;;;;;;;;;;;;;1.82;64.55;100200.50;4968536;28;19949;-60
2022/12/03 00:27:02;;;;;;;;;;;;;;;1.85;63.63;100204.81;4968093;28;20650;-60
2022/12/03 00:29:27;;;;;;;;;;;;;;;2.21;61.30;100225.09;4967841;28;19926;-60
2022/12/03 00:31:53;;;;;;;;;;;;;;;2.24;61.97;100224.28;4970028;28;19925;-59
2022/12/03 00:34:18;;;;;;;;;;;;;;;2.09;63.51;100215.50;4967824;28;20290;-60
2022/12/03 00:36:43;;;;;;;;;;;;;;;2.01;64.10;100216.19;4972473;28;19922;-59
2022/12/03 00:39:09;;;;;;;;;;;;;;;2.43;62.51;100215.34;4965578;28;20391;-60
2022/12/03 00:41:34;;;;;;;;;;;;;;;2.36;63.97;100203.34;4969278;28;19926;-60
2022/12/03 00:43:59;;;;;;;;;;;;;;;2.67;63.03;100210.78;4965151;28;20713;-59
2022/12/03 00:46:25;;;;;;;;;;;;;;;2.22;66.42;100178.50;4972276;28;20023;-60
2022/12/03 00:48:50;;;;;;;;;;;;;;;2.21;67.19;100175.91;4969864;28;20277;-60
2022/12/03 00:51:15;;;;;;;;;;;;;;;2.41;66.85;100173.78;4970047;28;20004;-59
2022/12/03 00:53:40;;;;;;;;;;;;;;;2.18;68.88;100153.84;4970776;28;20344;-60
2022/12/03 00:56:06;;;;;;;;;;;;;;;2.79;65.63;100169.44;4965996;28;20313;-60
2022/12/03 00:58:31;;;;;;;;;;;;;;;2.82;67.30;100159.31;4969093;28;20005;-60
2022/12/03 01:00:56;;;;;;;;;;;;;;;1.88;74.09;100123.59;4967172;28;19925;-60
2022/12/03 01:03:22;;;;;;;;;;;;;;;2.39;69.65;100138.16;4969584;28;19926;-60
2022/12/03 01:05:47;;;;;;;;;;;;;;;2.16;71.25;100131.78;4972642;28;20364;-59
2022/12/03 01:08:13;;;;;;;;;;;;;;;2.17;70.63;100136.06;4970138;28;19968;-59
2022/12/03 01:10:38;;;;;;;;;;;;;;;1.88;72.60;100123.59;4968460;28;19980;-60
2022/12/03 01:13:03;;;;;;;;;;;;;;;2.06;71.98;100126.50;4967636;28;19922;-59
2022/12/03 01:15:28;;;;;;;;;;;;;;;2.16;70.37;100137.72;4966554;28;19930;-59
2022/12/03 01:17:54;;;;;;;;;;;;;;;2.30;71.06;100140.53;4964512;28;19921;-59
2022/12/03 01:20:19;;;;;;;;;;;;;;;2.38;71.50;100138.16;4965878;28;19983;-60
2022/12/03 01:22:44;;;;;;;;;;;;;;;2.80;70.17;100144.84;4969456;28;19949;-59
2022/12/03 01:25:09;;;;;;;;;;;;;;;2.44;74.60;100125.53;4967997;28;19932;-59
2022/12/03 01:27:35;;;;;;;;;;;;;;;2.66;73.91;100126.81;4965655;28;19919;-60
2022/12/03 01:30:00;;;;;;;;;;;;;;;2.48;75.36;100112.91;4970237;28;19923;-59
2022/12/03 01:32:25;;;;;;;;;;;;;;;2.42;76.07;100107.72;4965165;28;19918;-59
2022/12/03 01:34:51;;;;;;;;;;;;;;;1.95;77.15;100094.94;4970019;28;20362;-59
2022/12/03 01:37:17;;;;;;;;;;;;;;;2.15;75.77;100107.22;4968139;28;20876;-59
2022/12/03 01:39:43;;;;;;;;;;;;;;;2.65;72.37;100130.19;4968497;28;19968;-59
2022/12/03 01:42:10;;;;;;;;;;;;;;;2.01;76.62;100104.38;4965881;28;20379;-59
2022/12/03 01:44:35;;;;;;;;;;;;;;;2.13;73.80;100113.94;4967777;28;20009;-59
2022/12/03 01:47:02;;;;;;;;;;;;;;;1.97;74.39;100111.06;4964321;28;20387;-59
2022/12/03 01:49:31;;;;;;;;;;;;;;;2.00;73.40;100110.28;4964679;28;19960;-59
2022/12/03 01:51:57;;;;;;;;;;;;;;;2.49;69.94;100140.06;4965574;28;19971;-59
2022/12/03 01:54:26;;;;;;;;;;;;;;;2.33;72.38;100127.91;4966065;28;20350;-59
2022/12/03 01:56:51;;;;;;;;;;;;;;;2.14;73.38;100110.56;4964811;28;19975;-59
2022/12/03 01:59:17;;;;;;;;;;;;;;;2.72;69.25;100137.09;4965549;28;20590;-59
2022/12/03 02:01:43;;;;;;;;;;;;;;;2.58;71.94;100128.34;4969024;28;19917;-59
2022/12/03 02:04:12;;;;;;;;;;;;;;;2.23;74.80;100113.28;4971657;28;20371;-59
2022/12/03 02:06:37;;;;;;;;;;;;;;;2.24;74.68;100107.38;4972734;28;20012;-59
2022/12/03 02:09:02;;;;;;;;;;;;;;;2.16;74.36;100111.44;4966253;28;19922;-59
2022/12/03 02:11:29;;;;;;;;;;;;;;;1.91;72.65;100110.94;4967844;28;19971;-59
2022/12/03 02:13:55;;;;;;;;;;;;;;;2.31;68.04;100139.72;4969872;28;20650;-59
2022/12/03 02:16:21;;;;;;;;;;;;;;;2.47;68.15;100149.34;4969997;28;20435;-59
2022/12/03 02:18:46;;;;;;;;;;;;;;;2.30;69.09;100148.16;4966446;28;19961;-59
2022/12/03 02:21:11;;;;;;;;;;;;;;;2.39;68.59;100145.78;4970155;28;19922;-60
2022/12/03 02:23:55;;;;;;;;;;;;;;;1.90;69.73;100134.63;4969758;28;20268;-59
2022/12/03 02:26:20;;;;;;;;;;;;;;;2.07;66.89;100156.16;4966092;28;19968;-59
2022/12/03 02:28:45;;;;;;;;;;;;;;;1.98;65.75;100155.97;4962337;28;20033;-60
2022/12/03 02:31:11;;;;;;;;;;;;;;;2.03;64.35;100167.09;4967656;28;19928;-59
2022/12/03 02:33:36;;;;;;;;;;;;;;;2.22;64.30;100187.81;4965914;28;19933;-59
2022/12/03 02:36:01;;;;;;;;;;;;;;;1.87;66.89;100170.13;4966596;28;20329;-59
2022/12/03 02:38:27;;;;;;;;;;;;;;;1.87;64.52;100177.75;4967080;28;19922;-59
2022/12/03 02:40:52;;;;;;;;;;;;;;;2.09;62.40;100189.22;4962743;28;19965;-62
2022/12/03 02:43:18;;;;;;;;;;;;;;;1.82;61.92;100187.78;4964750;28;19968;-62
2022/12/03 02:45:44;;;;;;;;;;;;;;;2.17;60.39;100214.81;4966991;28;19926;-59
2022/12/03 02:48:11;;;;;;;;;;;;;;;2.51;60.40;100229.94;4963901;28;19933;-59
2022/12/03 02:50:37;;;;;;;;;;;;;;;2.30;62.91;100206.59;4963796;28;19991;-59
2022/12/03 02:53:03;;;;;;;;;;;;;;;2.18;63.59;100199.59;4965559;28;20497;-59
2022/12/03 02:55:29;;;;;;;;;;;;;;;2.29;63.30;100203.22;4962588;28;19922;-59
2022/12/03 02:57:54;;;;;;;;;;;;;;;2.65;61.08;100224.28;4969946;28;20344;-59
2022/12/03 03:00:21;;;;;;;;;;;;;;;2.50;63.44;100201.94;4964330;28;20351;-59
2022/12/03 03:02:47;;;;;;;;;;;;;;;1.94;66.62;100179.63;4968595;28;19929;-58
2022/12/03 03:05:12;;;;;;;;;;;;;;;1.91;64.43;100176.97;4967958;28;19921;-58
2022/12/03 03:07:38;;;;;;;;;;;;;;;1.89;63.83;100191.34;4966365;28;20028;-59
2022/12/03 03:10:03;;;;;;;;;;;;;;;2.05;62.70;100193.41;4965710;28;19926;-59
2022/12/03 03:12:29;;;;;;;;;;;;;;;2.16;62.05;100205.47;4964158;28;20523;-59
2022/12/03 03:14:54;;;;;;;;;;;;;;;2.03;61.23;100205.22;4966417;28;19922;-59
2022/12/03 03:17:19;;;;;;;;;;;;;;;1.98;61.82;100206.78;4967551;28;19928;-59
2022/12/03 03:19:44;;;;;;;;;;;;;;;1.87;63.24;100203.13;4965921;28;20009;-58
2022/12/03 03:22:10;;;;;;;;;;;;;;;1.59;64.27;100187.28;4966049;28;19973;-59
2022/12/03 03:24:35;;;;;;;;;;;;;;;1.91;60.95;100207.47;4968783;28;20755;-59
2022/12/03 03:27:00;;;;;;;;;;;;;;;1.61;62.13;100188.16;4950160;28;19921;-58
2022/12/03 03:29:25;;;;;;;;;;;;;;;1.85;60.36;100209.91;4963719;28;19926;-59
2022/12/03 03:31:51;;;;;;;;;;;;;;;1.99;60.93;100217.81;4966782;28;19918;-59
2022/12/03 03:34:16;;;;;;;;;;;;;;;2.06;60.89;100210.34;4964524;28;20861;-59
2022/12/03 03:36:41;;;;;;;;;;;;;;;2.14;61.54;100209.66;4963776;28;20342;-59
2022/12/03 03:39:06;;;;;;;;;;;;;;;1.67;64.59;100190.84;4963794;28;20322;-59
2022/12/03 03:41:32;;;;;;;;;;;;;;;1.70;62.46;100194.28;4967399;28;19949;-59
2022/12/03 03:43:57;;;;;;;;;;;;;;;1.52;61.55;100195.56;4966953;28;19938;-59
2022/12/03 03:46:22;;;;;;;;;;;;;;;1.19;61.46;100188.88;4964834;28;19929;-58
2022/12/03 03:48:47;;;;;;;;;;;;;;;1.23;60.36;100200.81;4967092;28;20719;-58
2022/12/03 03:51:13;;;;;;;;;;;;;;;1.50;59.05;100222.59;4968062;28;19933;-59
2022/12/03 03:53:39;;;;;;;;;;;;;;;1.73;59.04;100240.06;4964785;28;19922;-59
2022/12/03 03:56:04;;;;;;;;;;;;;;;1.94;58.48;100247.31;4967156;28;19930;-59
2022/12/03 03:58:29;;;;;;;;;;;;;;;1.75;60.05;100238.44;4968995;28;19929;-59
2022/12/03 04:00:55;;;;;;;;;;;;;;;1.23;62.63;100218.56;4970288;28;19930;-59
2022/12/03 04:03:20;;;;;;;;;;;;;;;1.71;59.24;100240.06;4971112;28;19921;-58
2022/12/03 04:05:45;;;;;;;;;;;;;;;1.40;61.33;100231.69;4968280;28;19921;-59
2022/12/03 04:08:11;;;;;;;;;;;;;;;1.46;61.02;100236.91;4968296;28;19995;-59
2022/12/03 04:13:20;;;;;;;;;;;;;;;1.57;61.67;100239.69;4966511;28;19941;-59
2022/12/03 04:15:45;;;;;;;;;;;;;;;1.57;61.08;100243.91;4968205;28;20291;-59
2022/12/03 04:22:38;;;;;;;;;;;;;;;1.70;60.82;100250.16;4968955;28;19928;-59
2022/12/03 04:23:40;;;;;;;;;;;;;;;1.15;62.93;100230.19;4968929;28;20025;-59
2022/12/03 04:28:48;;;;;;;;;;;;;;;1.94;59.52;100286.31;4970042;28;20418;-59
2022/12/03 04:36:41;;;;;;;;;;;;;;;1.32;61.58;100267.81;4969704;28;20286;-59
2022/12/03 04:39:07;;;;;;;;;;;;;;;1.27;62.79;100271.94;4971998;28;19926;-59
2022/12/03 04:41:32;;;;;;;;;;;;;;;1.18;63.41;100270.00;4968850;28;19922;-59
2022/12/03 04:46:41;;;;;;;;;;;;;;;1.37;64.58;100291.63;4970318;28;20029;-59
2022/12/03 04:49:06;;;;;;;;;;;;;;;1.02;66.48;100278.88;4968507;28;20017;-59
2022/12/03 04:51:32;;;;;;;;;;;;;;;0.91;67.83;100282.81;4972124;28;19922;-59
2022/12/03 04:53:57;;;;;;;;;;;;;;;1.05;68.83;100299.28;4969759;28;19975;-59
2022/12/03 04:56:22;;;;;;;;;;;;;;;1.19;69.59;100318.28;4968345;28;19957;-59
2022/12/03 04:58:47;;;;;;;;;;;;;;;1.39;69.44;100333.16;4966804;28;19929;-58
2022/12/03 05:01:13;;;;;;;;;;;;;;;1.25;71.21;100328.59;4968319;28;19933;-58
2022/12/03 05:03:38;;;;;;;;;;;;;;;0.62;73.06;100310.75;4966583;28;19922;-58
2022/12/03 05:06:03;;;;;;;;;;;;;;;1.10;72.27;100343.38;4967246;28;19926;-59
2022/12/03 05:08:29;;;;;;;;;;;;;;;0.72;74.65;100327.09;4966026;28;19934;-59
2022/12/03 05:10:54;;;;;;;;;;;;;;;1.21;73.65;100347.09;4970754;28;19922;-59
2022/12/03 05:13:19;;;;;;;;;;;;;;;0.99;74.69;100340.53;4966910;28;19922;-59
2022/12/03 05:15:44;;;;;;;;;;;;;;;1.00;75.26;100344.81;4966483;28;20435;-58
2022/12/03 05:18:10;;;;;;;;;;;;;;;1.07;75.50;100353.44;4967015;28;19922;-59
2022/12/03 05:20:41;;;;;;;;;;;;;;;1.33;75.64;100371.09;4970068;28;19921;-58
2022/12/03 05:23:07;;;;;;;;;;;;;;;1.00;76.57;100356.63;4968778;28;20260;-59
2022/12/03 05:25:32;;;;;;;;;;;;;;;0.93;76.21;100358.13;4966423;28;19971;-59
2022/12/03 05:27:57;;;;;;;;;;;;;;;0.61;77.89;100347.88;4969346;28;19966;-59
2022/12/03 05:30:22;;;;;;;;;;;;;;;0.70;77.54;100359.97;4969167;28;19926;-59
2022/12/03 05:32:48;;;;;;;;;;;;;;;0.91;77.37;100371.56;4969175;28;19914;-59
2022/12/03 05:35:14;;;;;;;;;;;;;;;1.08;77.63;100385.63;4967335;28;20446;-58
2022/12/03 05:37:39;;;;;;;;;;;;;;;0.43;79.22;100351.56;4969978;28;19932;-60
2022/12/03 05:40:04;;;;;;;;;;;;;;;0.49;78.96;100361.88;4968726;28;19922;-59
2022/12/03 05:45:14;;;;;;;;;;;;;;;1.49;76.80;100397.75;4967080;28;19937;-59
2022/12/03 05:47:39;;;;;;;;;;;;;;;1.04;78.21;100364.34;4966666;28;19922;-59
2022/12/03 05:50:05;;;;;;;;;;;;;;;0.92;78.21;100360.63;4967810;28;19926;-59
2022/12/03 05:52:30;;;;;;;;;;;;;;;0.34;79.80;100326.78;4968647;28;19921;-58
2022/12/03 05:54:55;;;;;;;;;;;;;;;0.83;78.06;100357.00;4967565;28;19918;-59
2022/12/03 05:57:20;;;;;;;;;;;;;;;1.00;77.88;100372.72;4967106;28;20368;-58
2022/12/03 05:59:46;;;;;;;;;;;;;;;1.18;76.74;100382.50;4968652;28;20754;-59
2022/12/03 06:02:11;;;;;;;;;;;;;;;1.00;78.42;100371.84;4967685;28;19982;-59
2022/12/03 06:04:36;;;;;;;;;;;;;;;0.89;78.05;100357.97;4968050;28;20040;-59
2022/12/03 06:07:01;;;;;;;;;;;;;;;0.89;77.88;100352.91;4966259;28;20190;-58
2022/12/03 06:09:26;;;;;;;;;;;;;;;0.81;78.35;100345.94;4965999;28;19972;-59
2022/12/03 06:11:53;;;;;;;;;;;;;;;0.86;78.47;100355.38;4968427;28;19922;-59
2022/12/03 06:14:18;;;;;;;;;;;;;;;0.89;78.08;100356.34;4965295;28;19933;-59
2022/12/03 06:16:43;;;;;;;;;;;;;;;0.57;79.01;100342.69;4966260;28;19922;-59
2022/12/03 06:19:09;;;;;;;;;;;;;;;0.93;78.04;100360.66;4964896;28;19930;-62
2022/12/03 06:21:34;;;;;;;;;;;;;;;0.82;78.44;100347.69;4967791;28;19964;-61
2022/12/03 06:24:00;;;;;;;;;;;;;;;0.38;79.61;100314.25;4969676;28;19922;-59
2022/12/03 06:26:25;;;;;;;;;;;;;;;0.85;78.11;100351.13;4966354;28;19922;-59
2022/12/03 06:28:50;;;;;;;;;;;;;;;1.09;77.68;100356.88;4964999;28;19953;-58
2022/12/03 06:31:15;;;;;;;;;;;;;;;1.13;76.80;100351.06;4967920;28;20502;-58
2022/12/03 06:33:41;;;;;;;;;;;;;;;1.04;76.23;100343.22;4970446;28;20836;-58
2022/12/03 06:36:06;;;;;;;;;;;;;;;0.82;77.01;100321.44;4966666;28;20020;-59
2022/12/03 06:38:31;;;;;;;;;;;;;;;1.20;75.22;100332.66;4967016;28;19952;-58
2022/12/03 06:40:56;;;;;;;;;;;;;;;0.68;76.97;100303.31;4969021;28;19930;-58
2022/12/03 06:43:22;;;;;;;;;;;;;;;0.70;76.33;100309.28;4965276;28;19922;-61
2022/12/03 06:45:47;;;;;;;;;;;;;;;1.04;75.55;100333.06;4966010;28;20039;-58
2022/12/03 06:48:12;;;;;;;;;;;;;;;0.88;76.67;100333.47;4966951;28;20036;-58
2022/12/03 06:50:38;;;;;;;;;;;;;;;0.92;76.35;100332.72;4966360;28;19922;-59
2022/12/03 06:53:03;;;;;;;;;;;;;;;0.55;77.63;100324.06;4967479;28;19920;-59
2022/12/03 06:55:28;;;;;;;;;;;;;;;0.65;77.73;100327.72;4967322;28;20391;-59
2022/12/03 06:57:53;;;;;;;;;;;;;;;0.73;78.02;100347.41;4968783;28;20420;-58
2022/12/03 07:00:19;;;;;;;;;;;;;;;0.77;78.13;100339.06;4967396;28;19933;-59
2022/12/03 07:02:44;;;;;;;;;;;;;;;0.68;78.24;100338.78;4951282;28;19917;-58
2022/12/03 07:05:09;;;;;;;;;;;;;;;0.66;79.11;100342.97;4965732;28;20045;-59
2022/12/03 07:07:35;;;;;;;;;;;;;;;0.99;77.75;100370.13;4969059;28;19961;-58
2022/12/03 07:10:00;;;;;;;;;;;;;;;0.80;78.47;100367.06;4967176;28;19922;-59
2022/12/03 07:12:25;;;;;;;;;;;;;;;0.81;78.87;100360.31;4968657;28;20513;-58
2022/12/03 07:14:51;;;;;;;;;;;;;;;1.09;77.85;100367.03;4966922;28;20496;-58
2022/12/03 07:17:16;;;;;;;;;;;;;;;0.91;78.02;100367.34;4968798;28;19929;-58
2022/12/03 07:19:41;;;;;;;;;;;;;;;0.87;78.52;100355.44;4967043;28;19925;-59
2022/12/03 07:22:06;;;;;;;;;;;;;;;1.19;77.00;100368.16;4966421;28;19979;-59
2022/12/03 07:24:31;;;;;;;;;;;;;;;0.79;77.41;100342.50;4964441;28;19918;-59
2022/12/03 07:26:57;;;;;;;;;;;;;;;0.88;77.23;100336.84;4964483;28;19929;-59
2022/12/03 07:29:22;;;;;;;;;;;;;;;1.12;75.43;100341.75;4965433;28;19947;-59
2022/12/03 07:31:47;;;;;;;;;;;;;;;0.54;77.10;100310.50;4966874;28;19952;-58
2022/12/03 07:34:12;;;;;;;;;;;;;;;0.87;75.42;100325.00;4965051;28;19918;-59
2022/12/03 07:36:38;;;;;;;;;;;;;;;0.88;76.01;100316.56;4964990;28;19926;-58
2022/12/03 07:39:03;;;;;;;;;;;;;;;1.28;74.21;100337.09;4967954;28;20994;-59
2022/12/03 07:41:28;;;;;;;;;;;;;;;0.55;76.71;100301.25;4965640;28;19926;-59
2022/12/03 07:43:54;;;;;;;;;;;;;;;1.08;74.81;100323.88;4966390;28;19929;-59
2022/12/03 07:46:19;;;;;;;;;;;;;;;0.97;74.93;100315.97;4966004;28;19937;-59
2022/12/03 07:48:44;;;;;;;;;;;;;;;0.98;74.82;100307.53;4967874;28;20009;-59
2022/12/03 07:51:10;;;;;;;;;;;;;;;1.36;72.86;100322.94;4964309;28;19975;-58
2022/12/03 07:53:35;;;;;;;;;;;;;;;0.77;74.16;100283.28;4964146;28;19922;-58
2022/12/03 07:56:02;;;;;;;;;;;;;;;1.18;71.91;100320.75;4965991;28;19926;-59
2022/12/03 07:58:27;;;;;;;;;;;;;;;1.30;71.00;100315.16;4964932;28;20470;-58
2022/12/03 08:00:52;;;;;;;;;;;;;;;1.75;67.40;100329.84;4965645;28;19918;-59
2022/12/03 08:03:17;;;;;;;;;;;;;;;1.12;69.52;100280.88;4964909;28;19926;-59
2022/12/03 08:05:43;;;;;;;;;;;;;;;1.91;63.92;100319.25;4966432;28;19925;-59
2022/12/03 08:08:08;;;;;;;;;;;;;;;1.25;65.10;100267.69;4964954;28;19918;-59
2022/12/03 08:10:33;;;;;;;;;;;;;;;1.31;64.15;100261.06;4968519;28;19964;-58
2022/12/03 08:12:58;;;;;;;;;;;;;;;1.92;60.77;100287.94;4966214;28;19994;-59
2022/12/03 08:15:24;;;;;;;;;;;;;;;1.90;60.69;100264.19;4965882;28;20279;-59
2022/12/03 08:17:59;;;;;;;;;;;;;;;1.00;65.20;100212.03;4966398;28;19987;-59
2022/12/03 08:20:25;;;;;;;;;;;;;;;1.09;63.18;100224.97;4967545;28;19922;-58
2022/12/03 08:22:51;;;;;;;;;;;;;;;1.01;62.79;100218.84;4966099;28;19922;-59
2022/12/03 08:25:34;;;;;;;;;;;;;;;1.50;60.29;100234.44;4964358;28;19922;-59
2022/12/03 08:28:20;;;;;;;;;;;;;;;0.65;65.29;100189.16;4967382;28;19995;-58
2022/12/03 08:31:04;;;;;;;;;;;;;;;0.87;62.10;100207.44;4964949;28;19926;-58
2022/12/03 08:33:34;;;;;;;;;;;;;;;0.76;62.48;100209.72;4963417;28;19929;-58
2022/12/03 08:36:06;;;;;;;;;;;;;;;1.29;60.06;100238.16;4961895;28;20016;-48
2022/12/03 08:38:31;;;;;;;;;;;;;;;1.32;60.00;100245.00;4963895;28;19929;-49
2022/12/03 08:40:57;;;;;;;;;;;;;;;1.31;60.67;100235.66;4964646;28;19919;-57
2022/12/03 08:43:23;;;;;;;;;;;;;;;1.97;57.67;100255.88;4968905;28;19922;-57
2022/12/03 08:45:49;;;;;;;;;;;;;;;1.13;62.34;100210.69;4969498;28;19933;-57
2022/12/03 08:48:14;;;;;;;;;;;;;;;1.40;60.48;100225.75;4968220;28;20060;-57
2022/12/03 08:50:40;;;;;;;;;;;;;;;1.62;59.24;100233.06;4970076;28;19922;-55
2022/12/03 08:53:12;;;;;;;;;;;;;;;1.97;58.15;100245.72;4968762;28;19925;-54
2022/12/03 08:55:38;;;;;;;;;;;;;;;1.98;60.57;100229.63;4970505;28;19977;-49
2022/12/03 08:58:23;;;;;;;;;;;;;;;1.66;63.38;100198.44;4968579;28;20679;-50
2022/12/03 09:01:00;;;;;;;;;;;;;;;2.28;60.37;100215.88;5005171;28;19926;-49
2022/12/03 09:03:27;;;;;;;;;;;;;;;2.38;61.64;100205.09;4966893;28;20093;-53
2022/12/03 09:05:52;;;;;;;;;;;;;;;2.17;64.46;100181.78;4971831;28;19929;-51
2022/12/03 09:08:17;;;;;;;;;;;;;;;1.84;66.38;100148.06;4968518;28;19930;-52
2022/12/03 09:10:43;;;;;;;;;;;;;;;1.68;67.72;100131.63;4971039;28;19929;-53
2022/12/03 09:13:08;;;;;;;;;;;;;;;1.78;66.93;100134.34;4967361;28;19933;-51
2022/12/03 09:15:33;;;;;;;;;;;;;;;1.58;68.28;100124.63;4970932;28;19921;-52
2022/12/03 09:17:58;;;;;;;;;;;;;;;1.88;66.03;100136.28;4967607;28;19922;-53
2022/12/03 09:20:24;;;;;;;;;;;;;;;2.01;66.43;100135.72;4970630;28;20611;-58
2022/12/03 09:22:49;;;;;;;;;;;;;;;1.35;71.99;100092.81;4972171;28;20058;-47
2022/12/03 09:25:15;;;;;;;;;;;;;;;1.78;69.84;100108.97;4966150;28;19971;-53
2022/12/03 09:27:40;;;;;;;;;;;;;;;1.36;72.86;100081.81;4966193;28;19918;-50
2022/12/03 09:30:06;;;;;;;;;;;;;;;1.62;71.36;100080.72;4969287;28;19971;-49
2022/12/03 09:32:31;;;;;;;;;;;;;;;1.46;72.77;100078.69;4965005;28;19949;-50
2022/12/03 09:34:56;;;;;;;;;;;;;;;1.06;74.49;100056.63;4966099;28;20303;-52
2022/12/03 09:37:21;;;;;;;;;;;;;;;1.11;72.62;100058.41;4968571;28;20259;-51
2022/12/03 09:39:47;;;;;;;;;;;;;;;1.65;69.35;100087.53;4965541;28;19928;-48
2022/12/03 09:42:12;;;;;;;;;;;;;;;1.41;70.75;100070.94;4967284;28;19922;-48
2022/12/03 09:44:37;;;;;;;;;;;;;;;1.51;70.30;100077.09;4964881;28;19929;-52
2022/12/03 09:47:03;;;;;;;;;;;;;;;1.55;71.37;100071.28;4967439;28;19918;-52
2022/12/03 09:49:29;;;;;;;;;;;;;;;1.65;71.00;100075.69;4967423;28;19926;-54
2022/12/03 09:51:55;;;;;;;;;;;;;;;1.94;71.70;100072.91;4970188;28;20402;-51
2022/12/03 09:54:22;;;;;;;;;;;;;;;2.65;71.05;100090.34;4964603;28;20021;-54
2022/12/03 09:56:48;;;;;;;;;;;;;;;1.91;79.18;100027.13;4967454;28;19918;-53
2022/12/03 09:59:13;;;;;;;;;;;;;;;2.32;77.19;100032.13;4966830;28;19944;-54
2022/12/03 10:01:38;;;;;;;;;;;;;;;2.17;78.92;100009.00;4971229;28;20319;-52
2022/12/03 10:04:04;;;;;;;;;;;;;;;2.38;80.02;99994.09;4965805;28;19922;-51
2022/12/03 10:06:29;;;;;;;;;;;;;;;2.82;82.08;99990.56;4969092;28;20284;-52
2022/12/03 10:08:54;;;;;;;;;;;;;;;2.45;88.53;99952.69;4967595;28;20436;-56
2022/12/03 10:11:20;;;;;;;;;;;;;;;2.19;90.94;99936.16;4963698;28;19942;-50
2022/12/03 10:13:45;;;;;;;;;;;;;;;2.50;90.07;99933.28;4967209;28;19921;-51
2022/12/03 10:16:12;;;;;;;;;;;;;;;2.58;91.38;99928.34;4967373;28;19980;-51
2022/12/03 10:18:37;;;;;;;;;;;;;;;2.39;95.11;99908.53;4964833;28;19932;-53
2022/12/03 10:21:02;;;;;;;;;;;;;;;2.39;93.56;99893.28;4969765;28;19918;-49
2022/12/03 10:23:28;;;;;;;;;;;;;;;2.49;93.13;99895.13;4964627;28;19965;-51
2022/12/03 10:25:55;;;;;;;;;;;;;;;2.50;93.40;99900.22;4971200;28;19914;-52
2022/12/03 10:28:46;;;;;;;;;;;;;;;2.23;97.85;99875.22;4967754;28;19938;-58
2022/12/03 10:31:12;;;;;;;;;;;;;;;1.68;100.00;99849.78;4965019;28;19925;-58
2022/12/03 10:33:39;;;;;;;;;;;;;;;1.85;96.69;99849.22;4965675;28;19918;-58
2022/12/03 10:36:13;;;;;;;;;;;;;;;2.03;95.23;99861.34;4970032;28;20189;-58
2022/12/03 10:38:39;;;;;;;;;;;;;;;2.14;95.30;99861.53;4970720;28;19922;-58
2022/12/03 10:41:18;;;;;;;;;;;;;;;2.33;94.58;99872.84;4965643;28;19944;-58
2022/12/03 10:43:43;;;;;;;;;;;;;;;2.32;94.31;99871.97;4968054;28;20501;-58
2022/12/03 10:46:10;;;;;;;;;;;;;;;2.11;93.27;99861.50;4966608;28;19917;-58
2022/12/03 10:49:07;;;;;;;;;;;;;;;2.09;94.12;99854.69;4936367;28;21306;-59
2022/12/03 10:51:32;;;;;;;;;;;;;;;2.41;91.97;99867.03;4968564;28;19918;-59
2022/12/03 10:53:57;;;;;;;;;;;;;;;2.24;94.03;99853.25;4965567;28;20394;-59
2022/12/03 10:56:23;;;;;;;;;;;;;;;2.32;93.63;99855.88;4965724;28;20789;-59
2022/12/03 10:58:49;;;;;;;;;;;;;;;1.97;96.11;99840.94;4948693;28;20055;-59
2022/12/03 11:01:16;;;;;;;;;;;;;;;2.34;92.75;99844.06;4967765;28;20381;-59
2022/12/03 11:03:41;;;;;;;;;;;;;;;1.62;98.55;99825.97;4966200;28;19925;-59
2022/12/03 11:06:08;;;;;;;;;;;;;;;2.80;91.12;99858.25;4966485;28;20954;-59
2022/12/03 11:08:34;;;;;;;;;;;;;;;2.81;93.21;99854.91;4963456;28;20027;-59
2022/12/03 11:10:59;;;;;;;;;;;;;;;2.69;96.17;99834.38;4964051;28;20684;-59
2022/12/03 11:13:33;;;;;;;;;;;;;;;2.72;95.55;99831.88;4969496;28;19918;-59
2022/12/03 11:15:59;;;;;;;;;;;;;;;2.70;97.82;99820.84;4949031;28;20386;-59
2022/12/03 11:18:37;;;;;;;;;;;;;;;2.41;98.11;99811.13;4966663;28;19968;-59
2022/12/03 11:21:06;;;;;;;;;;;;;;;1.90;100.00;99801.91;4965980;28;19922;-59
2022/12/03 11:23:44;;;;;;;;;;;;;;;2.74;95.22;99825.13;4970043;28;19918;-58
2022/12/03 11:26:16;;;;;;;;;;;;;;;2.15;100.00;99802.28;4967934;28;19922;-60
2022/12/03 11:28:51;;;;;;;;;;;;;;;2.36;96.14;99806.81;4964292;28;20497;-60
2022/12/03 11:31:35;;;;;;;;;;;;;;;2.87;94.76;99816.81;4965308;28;20040;-60
2022/12/03 11:34:12;;;;;;;;;;;;;;;3.27;95.44;99822.34;4962021;28;19956;-60
2022/12/03 11:36:37;;;;;;;;;;;;;;;2.87;100.00;99790.50;4965873;28;20012;-59
2022/12/03 11:39:02;;;;;;;;;;;;;;;2.26;100.00;99760.09;4963533;28;19918;-59
2022/12/03 11:41:29;;;;;;;;;;;;;;;2.27;100.00;99766.88;4967434;28;20013;-58
2022/12/03 11:43:55;;;;;;;;;;;;;;;2.54;100.00;99766.38;4966490;28;20016;-59
2022/12/03 11:46:23;;;;;;;;;;;;;;;2.36;100.00;99769.53;4966494;28;20400;-58
2022/12/03 11:48:49;;;;;;;;;;;;;;;2.30;100.00;99766.91;4966214;28;19922;-58
2022/12/03 11:51:15;;;;;;;;;;;;;;;1.77;100.00;99756.81;4967706;28;19929;-58
2022/12/03 11:53:40;;;;;;;;;;;;;;;2.05;99.67;99771.66;4962150;28;20623;-58
2022/12/03 11:56:07;;;;;;;;;;;;;;;2.22;99.26;99773.59;4966837;28;20036;-58
2022/12/03 11:58:33;;;;;;;;;;;;;;;1.72;100.00;99759.28;4964113;28;20467;-59
2022/12/03 12:00:59;;;;;;;;;;;;;;;2.04;98.67;99769.94;4964696;28;19914;-58
2022/12/03 12:03:32;;;;;;;;;;;;;;;1.93;98.33;99774.00;4966605;28;20515;-58
2022/12/03 12:06:01;;;;;;;;;;;;;;;2.12;96.09;99786.97;4964152;28;19925;-58
2022/12/03 12:08:26;;;;;;;;;;;;;;;2.17;97.21;99785.38;4966792;28;19922;-59
2022/12/03 12:10:51;;;;;;;;;;;;;;;2.13;98.21;99784.47;4967019;28;20458;-59
2022/12/03 12:13:43;;;;;;;;;;;;;;;2.59;96.58;99786.78;4963801;28;19962;-58
2022/12/03 12:16:08;;;;;;;;;;;;;;;2.25;97.43;99771.91;4969203;28;19922;-58
2022/12/03 12:18:41;;;;;;;;;;;;;;;1.98;99.86;99764.75;4971215;28;19922;-58
2022/12/03 12:21:25;;;;;;;;;;;;;;;2.23;96.76;99775.28;4968031;28;19918;-58
2022/12/03 12:23:50;;;;;;;;;;;;;;;2.11;98.33;99764.94;4969607;28;20226;-58
2022/12/03 12:26:15;;;;;;;;;;;;;;;2.11;99.29;99754.78;4967256;28;19922;-58
2022/12/03 12:28:40;;;;;;;;;;;;;;;2.15;100.00;99751.47;4968942;28;20041;-58
2022/12/03 12:31:09;;;;;;;;;;;;;;;1.45;100.00;99729.22;4967495;28;19957;-58
2022/12/03 12:33:35;;;;;;;;;;;;;;;1.45;100.00;99726.69;4966177;28;19922;-59
2022/12/03 12:36:03;;;;;;;;;;;;;;;2.17;97.31;99753.19;4968824;28;20016;-59
2022/12/03 12:38:29;;;;;;;;;;;;;;;2.68;96.49;99754.69;4968008;28;19921;-58
2022/12/03 12:40:54;;;;;;;;;;;;;;;2.57;99.32;99747.75;4965585;28;19926;-58
2022/12/03 12:43:21;;;;;;;;;;;;;;;2.90;100.00;99740.53;4967678;28;20413;-58
2022/12/03 12:45:47;;;;;;;;;;;;;;;3.28;100.00;99732.41;4970935;28;19925;-53
2022/12/03 12:48:20;;;;;;;;;;;;;;;3.12;100.00;99711.06;4969883;28;19918;-56
2022/12/03 12:50:47;;;;;;;;;;;;;;;2.96;100.00;99683.75;4970423;28;19980;-49
2022/12/03 12:53:22;;;;;;;;;;;;;;;3.18;100.00;99689.91;4968966;28;19948;-52
2022/12/03 12:55:47;;;;;;;;;;;;;;;2.61;100.00;99660.53;4968343;28;19922;-54
2022/12/03 12:58:15;;;;;;;;;;;;;;;2.93;100.00;99658.28;4968027;28;20009;-45
2022/12/03 13:00:40;;;;;;;;;;;;;;;2.76;100.00;99652.19;4967815;28;19971;-47
2022/12/03 13:03:06;;;;;;;;;;;;;;;2.65;100.00;99641.91;4970267;28;19918;-51